sensor_id;sensor_type;location;lat;lon;timestamp;noise_LAeq;noise_LA_min;noise_LA_max;noise_LA01;noise_LA95
77134;Laerm;25175;50.140;18.990;2023-03-23T00:01:32;40.16;36.55;46.30;;
77134;Laerm;25175;50.140;18.990;2023-03-23T00:04:38;39.99;36.36;43.73;;
77134;Laerm;25175;50.140;18.990;2023-03-23T00:07:47;39.70;36.15;45.18;;
77134;Laerm;25175;50.140;18.990;2023-03-23T00:10:53;38.80;35.75;43.76;;
77134;Laerm;25175;50.140;18.990;2023-03-23T00:14:01;41.80;36.33;57.56;;
77134;Laerm;25175;50.140;18.990;2023-03-23T00:17:05;39.75;36.47;46.85;;
77134;Laerm;25175;50.140;18.990;2023-03-23T00:20:12;38.70;35.86;44.86;;
77134;Laerm;25175;50.140;18.990;2023-03-23T00:23:22;38.42;35.80;44.16;;
77134;Laerm;25175;50.140;18.990;2023-03-23T00:26:28;38.67;35.92;44.23;;
77134;Laerm;25175;50.140;18.990;2023-03-23T00:29:37;38.39;35.69;43.61;;
77134;Laerm;25175;50.140;18.990;2023-03-23T00:32:42;38.31;35.55;43.02;;
77134;Laerm;25175;50.140;18.990;2023-03-23T00:35:47;38.41;35.44;42.29;;
77134;Laerm;25175;50.140;18.990;2023-03-23T00:38:57;38.05;35.33;45.11;;
77134;Laerm;25175;50.140;18.990;2023-03-23T00:42:05;38.04;34.94;43.82;;
77134;Laerm;25175;50.140;18.990;2023-03-23T00:45:11;38.56;35.28;43.70;;
77134;Laerm;25175;50.140;18.990;2023-03-23T00:48:16;38.64;35.63;42.38;;
77134;Laerm;25175;50.140;18.990;2023-03-23T00:51:21;38.17;35.48;43.55;;
77134;Laerm;25175;50.140;18.990;2023-03-23T00:54:28;38.34;35.83;42.88;;
77134;Laerm;25175;50.140;18.990;2023-03-23T00:57:33;38.17;35.34;43.05;;
77134;Laerm;25175;50.140;18.990;2023-03-23T01:00:38;38.48;35.61;42.32;;
77134;Laerm;25175;50.140;18.990;2023-03-23T01:03:44;38.73;35.22;43.41;;
77134;Laerm;25175;50.140;18.990;2023-03-23T01:06:50;45.48;37.47;53.14;;
77134;Laerm;25175;50.140;18.990;2023-03-23T01:09:59;41.33;36.90;50.72;;
77134;Laerm;25175;50.140;18.990;2023-03-23T01:13:04;39.96;35.79;46.00;;
77134;Laerm;25175;50.140;18.990;2023-03-23T01:16:11;38.87;35.10;42.74;;
77134;Laerm;25175;50.140;18.990;2023-03-23T01:19:16;39.46;35.86;47.11;;
77134;Laerm;25175;50.140;18.990;2023-03-23T01:22:21;39.58;35.92;45.89;;
77134;Laerm;25175;50.140;18.990;2023-03-23T01:25:32;39.65;36.23;44.66;;
77134;Laerm;25175;50.140;18.990;2023-03-23T01:28:38;39.40;35.51;44.91;;
77134;Laerm;25175;50.140;18.990;2023-03-23T01:31:42;38.93;35.66;44.37;;
77134;Laerm;25175;50.140;18.990;2023-03-23T01:34:48;38.85;34.91;43.73;;
77134;Laerm;25175;50.140;18.990;2023-03-23T01:37:53;38.93;35.88;43.16;;
77134;Laerm;25175;50.140;18.990;2023-03-23T01:41:02;38.39;35.27;43.82;;
77134;Laerm;25175;50.140;18.990;2023-03-23T01:48:13;39.95;36.15;45.41;;
77134;Laerm;25175;50.140;18.990;2023-03-23T01:51:21;41.79;37.17;49.71;;
77134;Laerm;25175;50.140;18.990;2023-03-23T01:54:29;41.71;36.05;47.44;;
77134;Laerm;25175;50.140;18.990;2023-03-23T01:57:37;42.72;36.38;54.95;;
77134;Laerm;25175;50.140;18.990;2023-03-23T02:00:44;41.20;36.24;52.35;;
77134;Laerm;25175;50.140;18.990;2023-03-23T02:03:49;41.28;36.83;57.55;;
77134;Laerm;25175;50.140;18.990;2023-03-23T02:06:56;41.03;36.27;46.87;;
77134;Laerm;25175;50.140;18.990;2023-03-23T02:10:04;40.36;36.51;44.88;;
77134;Laerm;25175;50.140;18.990;2023-03-23T02:13:14;40.12;36.64;47.55;;
77134;Laerm;25175;50.140;18.990;2023-03-23T02:16:37;40.02;36.18;48.94;;
77134;Laerm;25175;50.140;18.990;2023-03-23T02:20:21;40.45;36.74;45.77;;
77134;Laerm;25175;50.140;18.990;2023-03-23T02:24:09;41.09;37.27;47.29;;
77134;Laerm;25175;50.140;18.990;2023-03-23T02:27:55;41.68;37.66;50.85;;
77134;Laerm;25175;50.140;18.990;2023-03-23T02:31:36;40.52;37.52;44.28;;
77134;Laerm;25175;50.140;18.990;2023-03-23T02:34:53;40.01;36.01;44.16;;
77134;Laerm;25175;50.140;18.990;2023-03-23T02:38:08;40.91;36.32;47.09;;
77134;Laerm;25175;50.140;18.990;2023-03-23T02:41:16;41.63;37.30;47.10;;
77134;Laerm;25175;50.140;18.990;2023-03-23T02:44:27;42.06;37.89;47.45;;
77134;Laerm;25175;50.140;18.990;2023-03-23T02:47:38;41.55;37.62;46.48;;
77134;Laerm;25175;50.140;18.990;2023-03-23T02:50:53;42.21;37.97;48.04;;
77134;Laerm;25175;50.140;18.990;2023-03-23T02:53:59;42.53;38.24;48.21;;
77134;Laerm;25175;50.140;18.990;2023-03-23T02:57:07;42.33;38.28;48.49;;
77134;Laerm;25175;50.140;18.990;2023-03-23T03:00:17;42.52;38.42;48.50;;
77134;Laerm;25175;50.140;18.990;2023-03-23T03:03:28;42.24;37.33;47.54;;
77134;Laerm;25175;50.140;18.990;2023-03-23T03:06:46;41.71;37.03;51.45;;
77134;Laerm;25175;50.140;18.990;2023-03-23T03:10:00;42.27;38.15;47.46;;
77134;Laerm;25175;50.140;18.990;2023-03-23T03:13:22;42.44;37.57;47.13;;
77134;Laerm;25175;50.140;18.990;2023-03-23T03:16:38;42.68;38.66;48.09;;
77134;Laerm;25175;50.140;18.990;2023-03-23T03:19:52;43.86;38.57;58.38;;
77134;Laerm;25175;50.140;18.990;2023-03-23T03:23:04;42.25;38.26;46.64;;
77134;Laerm;25175;50.140;18.990;2023-03-23T03:26:13;41.77;37.96;46.52;;
77134;Laerm;25175;50.140;18.990;2023-03-23T03:29:33;42.00;36.84;47.11;;
77134;Laerm;25175;50.140;18.990;2023-03-23T03:32:46;42.85;37.57;54.34;;
77134;Laerm;25175;50.140;18.990;2023-03-23T03:35:57;41.51;38.04;47.57;;
77134;Laerm;25175;50.140;18.990;2023-03-23T03:39:08;43.51;38.50;56.81;;
77134;Laerm;25175;50.140;18.990;2023-03-23T03:42:14;42.23;38.11;49.55;;
77134;Laerm;25175;50.140;18.990;2023-03-23T03:45:20;42.58;38.10;60.75;;
77134;Laerm;25175;50.140;18.990;2023-03-23T03:48:25;43.13;38.40;56.09;;
77134;Laerm;25175;50.140;18.990;2023-03-23T03:51:32;42.39;38.34;53.79;;
77134;Laerm;25175;50.140;18.990;2023-03-23T03:54:42;41.36;37.48;46.07;;
77134;Laerm;25175;50.140;18.990;2023-03-23T03:57:47;42.14;38.25;56.44;;
77134;Laerm;25175;50.140;18.990;2023-03-23T04:01:21;43.09;38.59;54.57;;
77134;Laerm;25175;50.140;18.990;2023-03-23T04:04:26;41.81;38.63;45.72;;
77134;Laerm;25175;50.140;18.990;2023-03-23T04:07:31;43.63;38.70;54.90;;
77134;Laerm;25175;50.140;18.990;2023-03-23T04:10:42;42.59;38.95;48.15;;
77134;Laerm;25175;50.140;18.990;2023-03-23T04:13:48;44.49;39.59;58.29;;
77134;Laerm;25175;50.140;18.990;2023-03-23T04:16:57;44.53;39.68;54.37;;
77134;Laerm;25175;50.140;18.990;2023-03-23T04:20:04;47.77;39.27;65.16;;
77134;Laerm;25175;50.140;18.990;2023-03-23T04:23:23;47.15;40.41;59.84;;
77134;Laerm;25175;50.140;18.990;2023-03-23T04:26:31;46.28;40.95;54.46;;
77134;Laerm;25175;50.140;18.990;2023-03-23T04:29:44;46.09;41.01;54.66;;
77134;Laerm;25175;50.140;18.990;2023-03-23T04:33:17;45.32;40.18;53.52;;
77134;Laerm;25175;50.140;18.990;2023-03-23T04:36:22;46.27;41.34;55.51;;
77134;Laerm;25175;50.140;18.990;2023-03-23T04:39:34;44.77;41.30;48.57;;
77134;Laerm;25175;50.140;18.990;2023-03-23T04:42:45;45.62;41.73;53.34;;
77134;Laerm;25175;50.140;18.990;2023-03-23T04:46:19;48.29;40.93;65.66;;
77134;Laerm;25175;50.140;18.990;2023-03-23T04:49:26;45.60;40.23;52.98;;
77134;Laerm;25175;50.140;18.990;2023-03-23T04:52:43;45.42;40.73;53.28;;
77134;Laerm;25175;50.140;18.990;2023-03-23T04:55:50;45.37;40.97;58.47;;
77134;Laerm;25175;50.140;18.990;2023-03-23T04:58:59;46.42;41.25;58.10;;
77134;Laerm;25175;50.140;18.990;2023-03-23T05:02:11;46.34;40.60;57.63;;
77134;Laerm;25175;50.140;18.990;2023-03-23T05:05:22;46.35;40.47;54.61;;
77134;Laerm;25175;50.140;18.990;2023-03-23T05:08:29;46.92;41.35;57.63;;
77134;Laerm;25175;50.140;18.990;2023-03-23T05:11:35;46.65;41.61;59.37;;
77134;Laerm;25175;50.140;18.990;2023-03-23T05:14:43;46.92;41.69;57.46;;
77134;Laerm;25175;50.140;18.990;2023-03-23T05:17:52;47.25;41.73;63.53;;
77134;Laerm;25175;50.140;18.990;2023-03-23T05:21:00;47.07;41.70;58.29;;
77134;Laerm;25175;50.140;18.990;2023-03-23T05:24:10;47.03;41.01;55.03;;
77134;Laerm;25175;50.140;18.990;2023-03-23T05:27:15;49.27;42.01;62.36;;
77134;Laerm;25175;50.140;18.990;2023-03-23T05:30:26;49.56;41.47;65.23;;
77134;Laerm;25175;50.140;18.990;2023-03-23T05:33:32;47.08;41.39;59.47;;
77134;Laerm;25175;50.140;18.990;2023-03-23T05:36:55;46.59;41.54;54.49;;
77134;Laerm;25175;50.140;18.990;2023-03-23T05:40:05;48.01;41.91;57.98;;
77134;Laerm;25175;50.140;18.990;2023-03-23T05:43:31;49.40;43.04;62.25;;
77134;Laerm;25175;50.140;18.990;2023-03-23T05:46:55;47.87;41.73;57.26;;
77134;Laerm;25175;50.140;18.990;2023-03-23T05:50:01;48.81;42.62;58.30;;
77134;Laerm;25175;50.140;18.990;2023-03-23T05:53:11;46.35;42.69;56.24;;
77134;Laerm;25175;50.140;18.990;2023-03-23T05:56:16;47.93;42.76;57.24;;
77134;Laerm;25175;50.140;18.990;2023-03-23T05:59:47;47.05;41.48;56.60;;
77134;Laerm;25175;50.140;18.990;2023-03-23T06:03:00;48.08;41.51;59.38;;
77134;Laerm;25175;50.140;18.990;2023-03-23T06:06:13;46.82;41.49;61.64;;
77134;Laerm;25175;50.140;18.990;2023-03-23T06:09:33;49.61;41.82;65.09;;
77134;Laerm;25175;50.140;18.990;2023-03-23T06:12:41;53.44;41.71;78.23;;
77134;Laerm;25175;50.140;18.990;2023-03-23T06:15:56;50.55;41.78;67.09;;
77134;Laerm;25175;50.140;18.990;2023-03-23T06:19:21;47.83;40.83;60.55;;
77134;Laerm;25175;50.140;18.990;2023-03-23T06:22:37;48.82;41.23;58.33;;
77134;Laerm;25175;50.140;18.990;2023-03-23T06:25:45;48.21;41.91;58.09;;
77134;Laerm;25175;50.140;18.990;2023-03-23T06:28:52;47.59;41.37;55.43;;
77134;Laerm;25175;50.140;18.990;2023-03-23T06:32:01;48.13;41.18;57.20;;
77134;Laerm;25175;50.140;18.990;2023-03-23T06:35:10;47.57;40.35;57.27;;
77134;Laerm;25175;50.140;18.990;2023-03-23T06:38:37;48.16;40.51;61.42;;
77134;Laerm;25175;50.140;18.990;2023-03-23T06:41:43;46.94;39.66;56.65;;
77134;Laerm;25175;50.140;18.990;2023-03-23T06:44:48;47.91;40.88;57.28;;
77134;Laerm;25175;50.140;18.990;2023-03-23T06:47:53;49.31;40.95;57.96;;
77134;Laerm;25175;50.140;18.990;2023-03-23T06:51:01;49.68;40.31;62.76;;
77134;Laerm;25175;50.140;18.990;2023-03-23T06:54:07;48.06;40.91;56.42;;
77134;Laerm;25175;50.140;18.990;2023-03-23T06:57:15;47.13;40.28;58.48;;
77134;Laerm;25175;50.140;18.990;2023-03-23T07:00:22;48.94;40.64;64.50;;
77134;Laerm;25175;50.140;18.990;2023-03-23T07:03:27;47.78;40.18;58.91;;
77134;Laerm;25175;50.140;18.990;2023-03-23T07:06:37;49.08;40.84;69.74;;
77134;Laerm;25175;50.140;18.990;2023-03-23T07:09:44;47.88;40.26;57.48;;
77134;Laerm;25175;50.140;18.990;2023-03-23T07:12:54;50.95;40.84;68.38;;
77134;Laerm;25175;50.140;18.990;2023-03-23T07:16:01;52.13;41.20;73.23;;
77134;Laerm;25175;50.140;18.990;2023-03-23T07:19:09;47.05;40.19;56.85;;
77134;Laerm;25175;50.140;18.990;2023-03-23T07:22:17;46.31;40.02;57.49;;
77134;Laerm;25175;50.140;18.990;2023-03-23T07:25:29;48.40;41.24;61.10;;
77134;Laerm;25175;50.140;18.990;2023-03-23T07:28:34;48.83;41.19;59.29;;
77134;Laerm;25175;50.140;18.990;2023-03-23T07:31:54;46.75;40.08;58.42;;
77134;Laerm;25175;50.140;18.990;2023-03-23T07:34:59;45.55;39.08;58.18;;
77134;Laerm;25175;50.140;18.990;2023-03-23T07:38:19;47.13;40.23;58.89;;
77134;Laerm;25175;50.140;18.990;2023-03-23T07:41:25;47.53;39.97;61.51;;
77134;Laerm;25175;50.140;18.990;2023-03-23T07:44:33;47.04;40.21;58.58;;
77134;Laerm;25175;50.140;18.990;2023-03-23T07:47:43;47.13;40.44;61.06;;
77134;Laerm;25175;50.140;18.990;2023-03-23T07:50:48;51.01;39.91;69.06;;
77134;Laerm;25175;50.140;18.990;2023-03-23T07:53:55;47.66;40.06;60.88;;
77134;Laerm;25175;50.140;18.990;2023-03-23T07:57:36;47.33;40.73;56.62;;
77134;Laerm;25175;50.140;18.990;2023-03-23T08:00:41;47.15;39.46;58.01;;
77134;Laerm;25175;50.140;18.990;2023-03-23T08:03:48;47.81;38.74;60.26;;
77134;Laerm;25175;50.140;18.990;2023-03-23T08:07:22;44.54;38.38;55.66;;
77134;Laerm;25175;50.140;18.990;2023-03-23T08:10:50;46.49;38.99;64.19;;
77134;Laerm;25175;50.140;18.990;2023-03-23T08:14:13;43.98;38.44;63.27;;
77134;Laerm;25175;50.140;18.990;2023-03-23T08:17:33;49.15;38.77;60.67;;
77134;Laerm;25175;50.140;18.990;2023-03-23T08:20:53;50.93;40.98;69.12;;
77134;Laerm;25175;50.140;18.990;2023-03-23T08:24:33;47.99;40.46;61.60;;
77134;Laerm;25175;50.140;18.990;2023-03-23T08:28:04;45.00;38.66;63.21;;
77134;Laerm;25175;50.140;18.990;2023-03-23T08:31:29;47.85;39.82;66.44;;
77134;Laerm;25175;50.140;18.990;2023-03-23T08:34:49;50.29;39.54;62.68;;
77134;Laerm;25175;50.140;18.990;2023-03-23T08:38:13;49.19;39.28;67.23;;
77134;Laerm;25175;50.140;18.990;2023-03-23T08:41:29;47.80;37.99;70.53;;
77134;Laerm;25175;50.140;18.990;2023-03-23T08:44:56;47.61;38.40;66.07;;
77134;Laerm;25175;50.140;18.990;2023-03-23T08:48:20;48.00;38.34;66.73;;
77134;Laerm;25175;50.140;18.990;2023-03-23T08:51:51;45.85;38.24;68.54;;
77134;Laerm;25175;50.140;18.990;2023-03-23T08:55:09;47.52;39.14;70.25;;
77134;Laerm;25175;50.140;18.990;2023-03-23T08:58:47;54.03;40.17;68.94;;
77134;Laerm;25175;50.140;18.990;2023-03-23T09:02:10;46.71;38.71;66.89;;
77134;Laerm;25175;50.140;18.990;2023-03-23T09:05:28;48.68;38.32;70.92;;
77134;Laerm;25175;50.140;18.990;2023-03-23T09:08:53;56.80;38.45;77.87;;
77134;Laerm;25175;50.140;18.990;2023-03-23T09:11:58;53.76;38.95;75.45;;
77134;Laerm;25175;50.140;18.990;2023-03-23T09:15:05;50.84;37.60;72.62;;
77134;Laerm;25175;50.140;18.990;2023-03-23T09:18:14;52.73;37.75;77.40;;
77134;Laerm;25175;50.140;18.990;2023-03-23T09:21:18;54.48;39.47;76.82;;
77134;Laerm;25175;50.140;18.990;2023-03-23T09:24:23;48.40;39.66;70.56;;
77134;Laerm;25175;50.140;18.990;2023-03-23T09:27:28;47.94;39.13;69.18;;
77134;Laerm;25175;50.140;18.990;2023-03-23T09:30:35;51.22;39.89;71.34;;
77134;Laerm;25175;50.140;18.990;2023-03-23T09:33:44;52.71;38.72;71.01;;
77134;Laerm;25175;50.140;18.990;2023-03-23T09:36:53;53.05;39.11;76.00;;
77134;Laerm;25175;50.140;18.990;2023-03-23T09:39:58;53.28;40.34;78.62;;
77134;Laerm;25175;50.140;18.990;2023-03-23T09:43:30;53.43;39.06;74.89;;
77134;Laerm;25175;50.140;18.990;2023-03-23T09:46:51;57.05;38.89;79.26;;
77134;Laerm;25175;50.140;18.990;2023-03-23T09:50:10;47.60;38.90;67.67;;
77134;Laerm;25175;50.140;18.990;2023-03-23T09:53:24;45.21;37.73;65.77;;
77134;Laerm;25175;50.140;18.990;2023-03-23T09:56:37;44.70;37.87;54.97;;
77134;Laerm;25175;50.140;18.990;2023-03-23T09:59:54;44.61;37.62;55.63;;
77134;Laerm;25175;50.140;18.990;2023-03-23T10:03:13;54.66;38.90;78.95;;
77134;Laerm;25175;50.140;18.990;2023-03-23T10:06:21;51.62;39.04;71.31;;
77134;Laerm;25175;50.140;18.990;2023-03-23T10:09:29;47.77;38.33;64.75;;
77134;Laerm;25175;50.140;18.990;2023-03-23T10:12:42;45.12;38.07;64.25;;
77134;Laerm;25175;50.140;18.990;2023-03-23T10:15:50;50.66;38.09;79.11;;
77134;Laerm;25175;50.140;18.990;2023-03-23T10:19:07;48.24;38.54;65.78;;
77134;Laerm;25175;50.140;18.990;2023-03-23T10:22:28;56.46;40.11;80.59;;
77134;Laerm;25175;50.140;18.990;2023-03-23T10:25:37;47.14;39.01;68.18;;
77134;Laerm;25175;50.140;18.990;2023-03-23T10:28:49;45.06;38.92;68.85;;
77134;Laerm;25175;50.140;18.990;2023-03-23T10:32:02;51.85;39.96;76.37;;
77134;Laerm;25175;50.140;18.990;2023-03-23T10:35:17;56.33;39.44;79.14;;
77134;Laerm;25175;50.140;18.990;2023-03-23T10:38:34;49.24;40.83;70.43;;
77134;Laerm;25175;50.140;18.990;2023-03-23T10:41:40;56.92;41.04;76.55;;
77134;Laerm;25175;50.140;18.990;2023-03-23T10:44:45;55.42;40.58;79.36;;
77134;Laerm;25175;50.140;18.990;2023-03-23T10:47:56;54.17;40.85;79.69;;
77134;Laerm;25175;50.140;18.990;2023-03-23T10:51:11;53.27;39.73;76.23;;
77134;Laerm;25175;50.140;18.990;2023-03-23T10:54:34;57.89;41.38;81.62;;
77134;Laerm;25175;50.140;18.990;2023-03-23T10:57:43;58.68;40.16;84.31;;
77134;Laerm;25175;50.140;18.990;2023-03-23T11:00:50;48.95;40.40;70.25;;
77134;Laerm;25175;50.140;18.990;2023-03-23T11:03:56;49.33;39.35;74.09;;
77134;Laerm;25175;50.140;18.990;2023-03-23T11:07:03;48.66;38.02;68.69;;
77134;Laerm;25175;50.140;18.990;2023-03-23T11:10:23;46.18;38.48;62.21;;
77134;Laerm;25175;50.140;18.990;2023-03-23T11:13:32;45.59;39.07;61.84;;
77134;Laerm;25175;50.140;18.990;2023-03-23T11:16:45;47.79;39.19;67.66;;
77134;Laerm;25175;50.140;18.990;2023-03-23T11:19:54;47.42;39.84;64.34;;
77134;Laerm;25175;50.140;18.990;2023-03-23T11:23:00;47.59;39.44;72.00;;
77134;Laerm;25175;50.140;18.990;2023-03-23T11:26:17;48.45;38.85;73.20;;
77134;Laerm;25175;50.140;18.990;2023-03-23T11:29:26;46.62;39.82;61.63;;
77134;Laerm;25175;50.140;18.990;2023-03-23T11:32:34;53.85;39.45;76.91;;
77134;Laerm;25175;50.140;18.990;2023-03-23T11:35:45;51.19;38.35;74.28;;
77134;Laerm;25175;50.140;18.990;2023-03-23T11:38:54;46.71;39.45;67.93;;
77134;Laerm;25175;50.140;18.990;2023-03-23T11:42:17;44.57;38.11;60.51;;
77134;Laerm;25175;50.140;18.990;2023-03-23T11:45:36;48.75;38.29;74.32;;
77134;Laerm;25175;50.140;18.990;2023-03-23T11:48:53;49.55;38.71;75.15;;
77134;Laerm;25175;50.140;18.990;2023-03-23T11:52:11;46.60;38.98;64.17;;
77134;Laerm;25175;50.140;18.990;2023-03-23T11:55:24;47.95;40.01;70.64;;
77134;Laerm;25175;50.140;18.990;2023-03-23T11:58:36;53.42;39.56;76.73;;
77134;Laerm;25175;50.140;18.990;2023-03-23T12:02:00;49.20;38.64;66.79;;
77134;Laerm;25175;50.140;18.990;2023-03-23T12:05:36;45.28;37.95;61.85;;
77134;Laerm;25175;50.140;18.990;2023-03-23T12:09:01;46.70;38.55;67.78;;
77134;Laerm;25175;50.140;18.990;2023-03-23T12:12:22;46.86;38.81;67.08;;
77134;Laerm;25175;50.140;18.990;2023-03-23T12:15:45;53.00;37.77;76.25;;
77134;Laerm;25175;50.140;18.990;2023-03-23T12:19:10;52.78;38.15;79.51;;
77134;Laerm;25175;50.140;18.990;2023-03-23T12:22:38;49.35;37.97;67.31;;
77134;Laerm;25175;50.140;18.990;2023-03-23T12:26:15;46.71;38.35;63.67;;
77134;Laerm;25175;50.140;18.990;2023-03-23T12:29:40;46.38;38.62;57.25;;
77134;Laerm;25175;50.140;18.990;2023-03-23T12:33:13;46.13;38.11;57.99;;
77134;Laerm;25175;50.140;18.990;2023-03-23T12:36:47;48.48;38.41;64.16;;
77134;Laerm;25175;50.140;18.990;2023-03-23T12:40:50;48.40;39.62;59.38;;
77134;Laerm;25175;50.140;18.990;2023-03-23T12:44:03;49.01;39.21;68.07;;
77134;Laerm;25175;50.140;18.990;2023-03-23T12:47:27;47.25;38.49;59.67;;
77134;Laerm;25175;50.140;18.990;2023-03-23T12:50:44;49.95;41.83;70.43;;
77134;Laerm;25175;50.140;18.990;2023-03-23T12:54:03;48.99;39.56;70.14;;
77134;Laerm;25175;50.140;18.990;2023-03-23T12:57:19;46.85;39.22;60.28;;
77134;Laerm;25175;50.140;18.990;2023-03-23T13:00:50;47.56;38.24;60.58;;
77134;Laerm;25175;50.140;18.990;2023-03-23T13:04:01;44.68;37.95;55.59;;
77134;Laerm;25175;50.140;18.990;2023-03-23T13:07:20;51.39;37.65;69.73;;
77134;Laerm;25175;50.140;18.990;2023-03-23T13:10:34;45.78;38.50;56.15;;
77134;Laerm;25175;50.140;18.990;2023-03-23T13:13:49;46.95;38.30;58.51;;
77134;Laerm;25175;50.140;18.990;2023-03-23T13:17:13;51.48;37.97;69.78;;
77134;Laerm;25175;50.140;18.990;2023-03-23T13:20:51;48.81;38.77;66.04;;
77134;Laerm;25175;50.140;18.990;2023-03-23T13:24:05;46.31;37.83;56.98;;
77134;Laerm;25175;50.140;18.990;2023-03-23T13:27:13;47.44;37.74;66.69;;
77134;Laerm;25175;50.140;18.990;2023-03-23T13:30:21;45.98;37.58;67.02;;
77134;Laerm;25175;50.140;18.990;2023-03-23T13:33:32;46.10;37.05;57.05;;
77134;Laerm;25175;50.140;18.990;2023-03-23T13:36:42;46.69;37.50;62.86;;
77134;Laerm;25175;50.140;18.990;2023-03-23T13:39:55;44.51;38.31;58.93;;
77134;Laerm;25175;50.140;18.990;2023-03-23T13:43:01;48.30;39.23;64.33;;
77134;Laerm;25175;50.140;18.990;2023-03-23T13:46:28;45.44;37.90;57.81;;
77134;Laerm;25175;50.140;18.990;2023-03-23T13:49:45;45.88;37.57;57.83;;
77134;Laerm;25175;50.140;18.990;2023-03-23T13:52:54;46.30;37.85;58.53;;
77134;Laerm;25175;50.140;18.990;2023-03-23T13:56:19;46.63;37.76;57.24;;
77134;Laerm;25175;50.140;18.990;2023-03-23T13:59:34;47.31;38.52;59.78;;
77134;Laerm;25175;50.140;18.990;2023-03-23T14:02:41;47.10;38.67;59.35;;
77134;Laerm;25175;50.140;18.990;2023-03-23T14:06:04;48.97;37.43;66.38;;
77134;Laerm;25175;50.140;18.990;2023-03-23T14:09:33;46.53;38.98;59.68;;
77134;Laerm;25175;50.140;18.990;2023-03-23T14:12:45;48.02;40.58;60.03;;
77134;Laerm;25175;50.140;18.990;2023-03-23T14:16:02;48.06;40.94;57.48;;
77134;Laerm;25175;50.140;18.990;2023-03-23T14:19:18;49.96;41.71;64.00;;
77134;Laerm;25175;50.140;18.990;2023-03-23T14:22:26;49.54;43.13;61.95;;
77134;Laerm;25175;50.140;18.990;2023-03-23T14:25:32;48.73;38.31;58.28;;
77134;Laerm;25175;50.140;18.990;2023-03-23T14:28:44;50.20;41.47;67.25;;
77134;Laerm;25175;50.140;18.990;2023-03-23T14:31:56;53.77;42.26;70.80;;
77134;Laerm;25175;50.140;18.990;2023-03-23T14:35:08;52.16;43.13;65.44;;
77134;Laerm;25175;50.140;18.990;2023-03-23T14:38:21;53.11;41.32;69.88;;
77134;Laerm;25175;50.140;18.990;2023-03-23T14:41:31;49.27;38.82;67.89;;
77134;Laerm;25175;50.140;18.990;2023-03-23T14:44:43;48.16;40.14;74.63;;
77134;Laerm;25175;50.140;18.990;2023-03-23T14:47:53;46.50;37.64;59.74;;
77134;Laerm;25175;50.140;18.990;2023-03-23T14:51:04;47.65;38.16;64.15;;
77134;Laerm;25175;50.140;18.990;2023-03-23T14:54:10;46.44;37.10;55.91;;
77134;Laerm;25175;50.140;18.990;2023-03-23T14:57:19;46.91;37.82;57.35;;
77134;Laerm;25175;50.140;18.990;2023-03-23T15:00:37;47.63;38.06;61.27;;
77134;Laerm;25175;50.140;18.990;2023-03-23T15:03:55;45.92;37.14;58.26;;
77134;Laerm;25175;50.140;18.990;2023-03-23T15:07:05;49.17;38.09;66.09;;
77134;Laerm;25175;50.140;18.990;2023-03-23T15:10:18;47.46;37.50;70.25;;
77134;Laerm;25175;50.140;18.990;2023-03-23T15:13:24;47.81;38.69;60.95;;
77134;Laerm;25175;50.140;18.990;2023-03-23T15:16:34;47.29;38.85;59.69;;
77134;Laerm;25175;50.140;18.990;2023-03-23T15:19:44;49.11;38.71;67.80;;
77134;Laerm;25175;50.140;18.990;2023-03-23T15:22:50;44.79;38.09;55.69;;
77134;Laerm;25175;50.140;18.990;2023-03-23T15:25:57;48.25;37.96;66.68;;
77134;Laerm;25175;50.140;18.990;2023-03-23T15:29:18;46.41;37.14;58.49;;
77134;Laerm;25175;50.140;18.990;2023-03-23T15:32:31;44.98;37.79;56.96;;
77134;Laerm;25175;50.140;18.990;2023-03-23T15:35:49;46.89;38.33;60.46;;
77134;Laerm;25175;50.140;18.990;2023-03-23T15:38:57;44.65;39.57;57.26;;
77134;Laerm;25175;50.140;18.990;2023-03-23T15:42:05;52.68;39.48;71.00;;
77134;Laerm;25175;50.140;18.990;2023-03-23T15:45:27;47.20;38.81;56.85;;
77134;Laerm;25175;50.140;18.990;2023-03-23T15:48:48;46.65;39.05;64.02;;
77134;Laerm;25175;50.140;18.990;2023-03-23T15:51:53;57.53;39.81;86.58;;
77134;Laerm;25175;50.140;18.990;2023-03-23T15:54:59;45.76;39.77;63.31;;
77134;Laerm;25175;50.140;18.990;2023-03-23T15:58:11;49.74;39.15;63.05;;
77134;Laerm;25175;50.140;18.990;2023-03-23T16:01:20;48.23;39.25;59.05;;
77134;Laerm;25175;50.140;18.990;2023-03-23T16:04:29;46.58;36.84;62.60;;
77134;Laerm;25175;50.140;18.990;2023-03-23T16:07:34;48.03;37.86;61.47;;
77134;Laerm;25175;50.140;18.990;2023-03-23T16:10:39;46.19;36.84;64.57;;
77134;Laerm;25175;50.140;18.990;2023-03-23T16:13:44;45.79;37.33;56.92;;
77134;Laerm;25175;50.140;18.990;2023-03-23T16:16:50;46.42;37.97;56.82;;
77134;Laerm;25175;50.140;18.990;2023-03-23T16:19:58;45.77;37.90;58.60;;
77134;Laerm;25175;50.140;18.990;2023-03-23T16:23:04;43.82;37.27;55.84;;
77134;Laerm;25175;50.140;18.990;2023-03-23T16:26:09;46.67;37.61;61.65;;
77134;Laerm;25175;50.140;18.990;2023-03-23T16:29:16;45.30;37.12;54.67;;
77134;Laerm;25175;50.140;18.990;2023-03-23T16:32:23;46.25;38.67;56.40;;
77134;Laerm;25175;50.140;18.990;2023-03-23T16:35:30;46.47;37.67;58.34;;
77134;Laerm;25175;50.140;18.990;2023-03-23T16:38:36;48.09;40.05;59.58;;
77134;Laerm;25175;50.140;18.990;2023-03-23T16:41:41;48.49;41.84;61.26;;
77134;Laerm;25175;50.140;18.990;2023-03-23T16:44:46;47.98;41.32;65.48;;
77134;Laerm;25175;50.140;18.990;2023-03-23T16:47:52;48.39;42.40;58.92;;
77134;Laerm;25175;50.140;18.990;2023-03-23T16:51:05;48.51;41.84;58.51;;
77134;Laerm;25175;50.140;18.990;2023-03-23T16:54:10;45.75;36.59;61.58;;
77134;Laerm;25175;50.140;18.990;2023-03-23T16:57:15;45.81;37.79;55.58;;
77134;Laerm;25175;50.140;18.990;2023-03-23T17:00:21;45.91;38.54;56.73;;
77134;Laerm;25175;50.140;18.990;2023-03-23T17:03:27;45.90;37.46;62.42;;
77134;Laerm;25175;50.140;18.990;2023-03-23T17:06:35;50.04;37.66;70.01;;
77134;Laerm;25175;50.140;18.990;2023-03-23T17:09:44;46.50;36.12;62.16;;
77134;Laerm;25175;50.140;18.990;2023-03-23T17:12:49;46.38;36.88;59.08;;
77134;Laerm;25175;50.140;18.990;2023-03-23T17:15:56;46.73;38.54;57.47;;
77134;Laerm;25175;50.140;18.990;2023-03-23T17:19:01;45.19;39.75;55.64;;
77134;Laerm;25175;50.140;18.990;2023-03-23T17:22:10;47.75;36.69;61.90;;
77134;Laerm;25175;50.140;18.990;2023-03-23T17:25:15;44.82;37.79;57.16;;
77134;Laerm;25175;50.140;18.990;2023-03-23T17:28:21;44.61;38.06;53.70;;
77134;Laerm;25175;50.140;18.990;2023-03-23T17:31:26;45.67;37.02;54.43;;
77134;Laerm;25175;50.140;18.990;2023-03-23T17:34:31;48.93;36.83;60.61;;
77134;Laerm;25175;50.140;18.990;2023-03-23T17:37:38;42.56;36.17;53.38;;
77134;Laerm;25175;50.140;18.990;2023-03-23T17:40:44;44.90;37.19;57.80;;
77134;Laerm;25175;50.140;18.990;2023-03-23T17:43:49;45.51;37.50;59.08;;
77134;Laerm;25175;50.140;18.990;2023-03-23T17:46:56;45.41;36.42;60.27;;